sensor_id;sensor_type;location;lat;lon;timestamp;temperature;humidity
5919;DHT22;2985;48.142;16.344;2022-08-05T00:00:37;24.60;68.80
5919;DHT22;2985;48.142;16.344;2022-08-05T00:05:46;24.60;68.90
5919;DHT22;2985;48.142;16.344;2022-08-05T00:10:57;24.60;69.50
5919;DHT22;2985;48.142;16.344;2022-08-05T00:16:09;24.40;71.70
5919;DHT22;2985;48.142;16.344;2022-08-05T00:21:18;24.30;71.20
5919;DHT22;2985;48.142;16.344;2022-08-05T00:26:27;24.30;71.90
5919;DHT22;2985;48.142;16.344;2022-08-05T00:31:36;24.20;72.20
5919;DHT22;2985;48.142;16.344;2022-08-05T00:41:55;24.10;73.00
5919;DHT22;2985;48.142;16.344;2022-08-05T00:47:04;24.00;73.80
5919;DHT22;2985;48.142;16.344;2022-08-05T00:52:14;23.80;74.50
5919;DHT22;2985;48.142;16.344;2022-08-05T00:57:23;23.80;75.10
5919;DHT22;2985;48.142;16.344;2022-08-05T01:02:33;23.70;75.60
5919;DHT22;2985;48.142;16.344;2022-08-05T01:07:42;23.70;76.30
5919;DHT22;2985;48.142;16.344;2022-08-05T01:12:57;23.70;75.70
5919;DHT22;2985;48.142;16.344;2022-08-05T01:18:12;23.80;76.20
5919;DHT22;2985;48.142;16.344;2022-08-05T01:29:03;23.70;76.70
5919;DHT22;2985;48.142;16.344;2022-08-05T01:34:24;23.60;77.20
5919;DHT22;2985;48.142;16.344;2022-08-05T01:39:35;23.50;78.70
5919;DHT22;2985;48.142;16.344;2022-08-05T01:44:47;23.40;78.30
5919;DHT22;2985;48.142;16.344;2022-08-05T01:49:58;23.40;78.70
5919;DHT22;2985;48.142;16.344;2022-08-05T01:55:11;23.50;78.80
5919;DHT22;2985;48.142;16.344;2022-08-05T02:00:21;23.30;79.60
5919;DHT22;2985;48.142;16.344;2022-08-05T02:05:33;23.20;80.50
5919;DHT22;2985;48.142;16.344;2022-08-05T02:15:54;23.10;80.90
5919;DHT22;2985;48.142;16.344;2022-08-05T02:21:18;23.10;81.10
5919;DHT22;2985;48.142;16.344;2022-08-05T02:26:37;23.10;81.80
5919;DHT22;2985;48.142;16.344;2022-08-05T02:31:48;23.10;82.20
5919;DHT22;2985;48.142;16.344;2022-08-05T02:37:00;23.10;82.50
5919;DHT22;2985;48.142;16.344;2022-08-05T02:42:11;23.10;82.60
5919;DHT22;2985;48.142;16.344;2022-08-05T02:47:21;23.10;82.80
5919;DHT22;2985;48.142;16.344;2022-08-05T02:52:32;23.10;83.20
5919;DHT22;2985;48.142;16.344;2022-08-05T02:57:41;22.90;83.40
5919;DHT22;2985;48.142;16.344;2022-08-05T03:02:52;22.90;83.20
5919;DHT22;2985;48.142;16.344;2022-08-05T03:08:02;22.90;83.20
5919;DHT22;2985;48.142;16.344;2022-08-05T03:13:14;22.90;82.70
5919;DHT22;2985;48.142;16.344;2022-08-05T03:18:24;22.90;82.60
5919;DHT22;2985;48.142;16.344;2022-08-05T03:23:34;22.80;82.50
5919;DHT22;2985;48.142;16.344;2022-08-05T03:28:43;22.90;82.70
5919;DHT22;2985;48.142;16.344;2022-08-05T03:33:52;22.80;82.70
5919;DHT22;2985;48.142;16.344;2022-08-05T03:39:06;22.80;82.90
5919;DHT22;2985;48.142;16.344;2022-08-05T03:44:16;22.80;83.30
5919;DHT22;2985;48.142;16.344;2022-08-05T03:49:25;22.80;83.60
5919;DHT22;2985;48.142;16.344;2022-08-05T03:54:42;22.70;83.60
5919;DHT22;2985;48.142;16.344;2022-08-05T03:59:57;22.80;83.80
5919;DHT22;2985;48.142;16.344;2022-08-05T04:05:09;22.70;83.70
5919;DHT22;2985;48.142;16.344;2022-08-05T04:10:19;22.70;84.00
5919;DHT22;2985;48.142;16.344;2022-08-05T04:15:29;22.80;83.60
5919;DHT22;2985;48.142;16.344;2022-08-05T04:20:39;22.90;83.80
5919;DHT22;2985;48.142;16.344;2022-08-05T04:25:48;22.90;84.60
5919;DHT22;2985;48.142;16.344;2022-08-05T04:30:58;23.10;84.30
5919;DHT22;2985;48.142;16.344;2022-08-05T04:36:08;23.30;83.90
5919;DHT22;2985;48.142;16.344;2022-08-05T04:41:18;23.30;83.90
5919;DHT22;2985;48.142;16.344;2022-08-05T04:46:27;23.40;84.00
5919;DHT22;2985;48.142;16.344;2022-08-05T04:51:36;23.60;83.70
5919;DHT22;2985;48.142;16.344;2022-08-05T04:56:46;23.80;83.20
5919;DHT22;2985;48.142;16.344;2022-08-05T05:01:55;24.00;82.80
5919;DHT22;2985;48.142;16.344;2022-08-05T05:07:06;24.10;82.60
5919;DHT22;2985;48.142;16.344;2022-08-05T05:12:15;24.20;82.30
5919;DHT22;2985;48.142;16.344;2022-08-05T05:17:24;24.40;82.00
5919;DHT22;2985;48.142;16.344;2022-08-05T05:22:34;24.40;81.60
5919;DHT22;2985;48.142;16.344;2022-08-05T05:27:44;24.50;80.80
5919;DHT22;2985;48.142;16.344;2022-08-05T05:32:53;24.70;80.30
5919;DHT22;2985;48.142;16.344;2022-08-05T05:38:04;24.90;79.80
5919;DHT22;2985;48.142;16.344;2022-08-05T05:43:14;24.90;79.10
5919;DHT22;2985;48.142;16.344;2022-08-05T05:48:24;25.20;78.60
5919;DHT22;2985;48.142;16.344;2022-08-05T05:53:33;25.40;78.30
5919;DHT22;2985;48.142;16.344;2022-08-05T05:58:42;25.70;78.20
5919;DHT22;2985;48.142;16.344;2022-08-05T06:03:52;26.00;78.00
5919;DHT22;2985;48.142;16.344;2022-08-05T06:09:05;26.10;77.60
5919;DHT22;2985;48.142;16.344;2022-08-05T06:14:14;26.30;77.00
5919;DHT22;2985;48.142;16.344;2022-08-05T06:19:25;26.50;76.20
5919;DHT22;2985;48.142;16.344;2022-08-05T06:24:40;26.70;75.90
5919;DHT22;2985;48.142;16.344;2022-08-05T06:29:49;26.80;75.90
5919;DHT22;2985;48.142;16.344;2022-08-05T06:34:59;27.20;75.70
5919;DHT22;2985;48.142;16.344;2022-08-05T06:40:08;27.10;74.60
5919;DHT22;2985;48.142;16.344;2022-08-05T06:45:20;27.20;75.40
5919;DHT22;2985;48.142;16.344;2022-08-05T06:50:29;27.50;75.50
5919;DHT22;2985;48.142;16.344;2022-08-05T06:55:39;27.40;74.60
5919;DHT22;2985;48.142;16.344;2022-08-05T07:00:48;27.30;74.00
5919;DHT22;2985;48.142;16.344;2022-08-05T07:05:58;27.50;74.10
5919;DHT22;2985;48.142;16.344;2022-08-05T07:11:10;27.70;74.00
5919;DHT22;2985;48.142;16.344;2022-08-05T07:16:20;27.80;73.60
5919;DHT22;2985;48.142;16.344;2022-08-05T07:21:48;28.00;73.40
5919;DHT22;2985;48.142;16.344;2022-08-05T07:26:58;28.10;72.60
5919;DHT22;2985;48.142;16.344;2022-08-05T07:32:07;28.20;72.20
5919;DHT22;2985;48.142;16.344;2022-08-05T07:37:16;28.30;72.70
5919;DHT22;2985;48.142;16.344;2022-08-05T07:42:25;28.40;71.20
5919;DHT22;2985;48.142;16.344;2022-08-05T07:47:34;28.30;71.30
5919;DHT22;2985;48.142;16.344;2022-08-05T07:52:44;28.60;71.70
5919;DHT22;2985;48.142;16.344;2022-08-05T07:57:53;28.80;71.30
5919;DHT22;2985;48.142;16.344;2022-08-05T08:03:02;29.00;70.80
5919;DHT22;2985;48.142;16.344;2022-08-05T08:08:12;29.20;70.80
5919;DHT22;2985;48.142;16.344;2022-08-05T08:13:22;29.20;69.80
5919;DHT22;2985;48.142;16.344;2022-08-05T08:18:31;29.40;70.30
5919;DHT22;2985;48.142;16.344;2022-08-05T08:23:40;29.60;68.50
5919;DHT22;2985;48.142;16.344;2022-08-05T08:28:49;29.80;68.90
5919;DHT22;2985;48.142;16.344;2022-08-05T08:33:58;30.00;68.70
5919;DHT22;2985;48.142;16.344;2022-08-05T08:39:08;30.10;67.90
5919;DHT22;2985;48.142;16.344;2022-08-05T08:44:19;30.00;68.00
5919;DHT22;2985;48.142;16.344;2022-08-05T08:49:29;30.20;67.70
5919;DHT22;2985;48.142;16.344;2022-08-05T08:54:42;30.50;67.00
5919;DHT22;2985;48.142;16.344;2022-08-05T08:59:52;30.70;67.00
5919;DHT22;2985;48.142;16.344;2022-08-05T09:05:03;30.90;66.20
5919;DHT22;2985;48.142;16.344;2022-08-05T09:10:12;30.90;66.70
5919;DHT22;2985;48.142;16.344;2022-08-05T09:15:22;31.10;66.10
5919;DHT22;2985;48.142;16.344;2022-08-05T09:20:31;31.10;65.80
5919;DHT22;2985;48.142;16.344;2022-08-05T09:25:43;31.30;65.40
5919;DHT22;2985;48.142;16.344;2022-08-05T09:30:54;31.70;65.10
5919;DHT22;2985;48.142;16.344;2022-08-05T09:36:04;31.80;64.30
5919;DHT22;2985;48.142;16.344;2022-08-05T09:41:14;31.80;64.20
5919;DHT22;2985;48.142;16.344;2022-08-05T09:46:33;32.10;64.70
5919;DHT22;2985;48.142;16.344;2022-08-05T09:51:43;32.10;64.20
5919;DHT22;2985;48.142;16.344;2022-08-05T09:56:52;32.30;63.80
5919;DHT22;2985;48.142;16.344;2022-08-05T10:02:01;32.10;63.30
5919;DHT22;2985;48.142;16.344;2022-08-05T10:07:11;32.30;63.60
5919;DHT22;2985;48.142;16.344;2022-08-05T10:12:20;32.30;62.30
5919;DHT22;2985;48.142;16.344;2022-08-05T10:17:29;32.10;63.30
5919;DHT22;2985;48.142;16.344;2022-08-05T10:22:39;32.20;62.90
5919;DHT22;2985;48.142;16.344;2022-08-05T10:27:49;32.40;62.40
5919;DHT22;2985;48.142;16.344;2022-08-05T10:32:59;32.70;62.50
5919;DHT22;2985;48.142;16.344;2022-08-05T10:38:08;32.90;62.50
5919;DHT22;2985;48.142;16.344;2022-08-05T10:43:33;33.00;62.10
5919;DHT22;2985;48.142;16.344;2022-08-05T10:48:45;32.90;61.40
5919;DHT22;2985;48.142;16.344;2022-08-05T10:53:56;33.20;62.30
5919;DHT22;2985;48.142;16.344;2022-08-05T10:59:06;33.40;61.90
5919;DHT22;2985;48.142;16.344;2022-08-05T11:04:18;33.40;61.50
5919;DHT22;2985;48.142;16.344;2022-08-05T11:09:46;33.50;61.40
5919;DHT22;2985;48.142;16.344;2022-08-05T11:25:42;33.80;60.90
5919;DHT22;2985;48.142;16.344;2022-08-05T11:36:10;33.90;60.30
5919;DHT22;2985;48.142;16.344;2022-08-05T11:41:22;34.20;60.00
5919;DHT22;2985;48.142;16.344;2022-08-05T11:46:35;34.30;60.00
5919;DHT22;2985;48.142;16.344;2022-08-05T11:51:46;34.40;59.80
5919;DHT22;2985;48.142;16.344;2022-08-05T11:56:56;34.60;59.50
5919;DHT22;2985;48.142;16.344;2022-08-05T12:02:06;34.50;59.30
5919;DHT22;2985;48.142;16.344;2022-08-05T12:07:17;34.60;59.20
5919;DHT22;2985;48.142;16.344;2022-08-05T12:12:26;34.70;59.00
5919;DHT22;2985;48.142;16.344;2022-08-05T12:22:46;35.00;58.30
5919;DHT22;2985;48.142;16.344;2022-08-05T12:27:56;35.20;58.20
5919;DHT22;2985;48.142;16.344;2022-08-05T12:33:05;35.30;58.40
5919;DHT22;2985;48.142;16.344;2022-08-05T12:38:14;35.20;57.60
5919;DHT22;2985;48.142;16.344;2022-08-05T12:43:24;35.40;57.10
5919;DHT22;2985;48.142;16.344;2022-08-05T12:48:39;35.70;57.20
5919;DHT22;2985;48.142;16.344;2022-08-05T12:53:48;35.40;50.60
5919;DHT22;2985;48.142;16.344;2022-08-05T13:04:28;35.40;48.70
5919;DHT22;2985;48.142;16.344;2022-08-05T13:09:39;35.60;49.80
5919;DHT22;2985;48.142;16.344;2022-08-05T13:14:58;35.70;50.70
5919;DHT22;2985;48.142;16.344;2022-08-05T13:20:11;35.70;48.90
5919;DHT22;2985;48.142;16.344;2022-08-05T13:25:22;35.90;49.30
5919;DHT22;2985;48.142;16.344;2022-08-05T13:30:32;35.90;48.50
5919;DHT22;2985;48.142;16.344;2022-08-05T13:35:41;35.90;49.80
5919;DHT22;2985;48.142;16.344;2022-08-05T13:40:51;36.30;49.70
5919;DHT22;2985;48.142;16.344;2022-08-05T13:46:00;36.30;48.60
5919;DHT22;2985;48.142;16.344;2022-08-05T13:51:11;36.30;49.90
5919;DHT22;2985;48.142;16.344;2022-08-05T13:56:24;36.40;50.80
5919;DHT22;2985;48.142;16.344;2022-08-05T14:01:35;36.00;50.20
5919;DHT22;2985;48.142;16.344;2022-08-05T14:06:44;35.90;49.90
5919;DHT22;2985;48.142;16.344;2022-08-05T14:11:53;35.90;50.80
5919;DHT22;2985;48.142;16.344;2022-08-05T14:17:03;35.80;51.50
5919;DHT22;2985;48.142;16.344;2022-08-05T14:22:13;35.50;51.30
5919;DHT22;2985;48.142;16.344;2022-08-05T14:27:22;35.80;50.90
5919;DHT22;2985;48.142;16.344;2022-08-05T14:32:32;35.80;50.70
5919;DHT22;2985;48.142;16.344;2022-08-05T14:37:41;36.10;50.60
5919;DHT22;2985;48.142;16.344;2022-08-05T14:42:51;36.20;50.60
5919;DHT22;2985;48.142;16.344;2022-08-05T14:48:00;36.50;49.80
5919;DHT22;2985;48.142;16.344;2022-08-05T14:53:10;36.60;50.20
5919;DHT22;2985;48.142;16.344;2022-08-05T14:58:20;36.60;49.30
5919;DHT22;2985;48.142;16.344;2022-08-05T15:03:30;36.60;49.70
5919;DHT22;2985;48.142;16.344;2022-08-05T15:08:40;36.90;50.10
5919;DHT22;2985;48.142;16.344;2022-08-05T15:13:49;37.50;50.00
5919;DHT22;2985;48.142;16.344;2022-08-05T15:18:59;37.20;49.80
5919;DHT22;2985;48.142;16.344;2022-08-05T15:24:08;37.20;48.50
5919;DHT22;2985;48.142;16.344;2022-08-05T15:29:18;40.10;46.00
5919;DHT22;2985;48.142;16.344;2022-08-05T15:34:27;43.50;47.20
5919;DHT22;2985;48.142;16.344;2022-08-05T15:39:36;46.90;46.00
5919;DHT22;2985;48.142;16.344;2022-08-05T15:44:45;42.60;44.90
5919;DHT22;2985;48.142;16.344;2022-08-05T15:49:54;39.40;46.40
5919;DHT22;2985;48.142;16.344;2022-08-05T15:55:05;39.40;46.50
5919;DHT22;2985;48.142;16.344;2022-08-05T16:00:15;38.80;47.20
5919;DHT22;2985;48.142;16.344;2022-08-05T16:05:26;37.70;47.90
5919;DHT22;2985;48.142;16.344;2022-08-05T16:10:35;37.50;48.20
5919;DHT22;2985;48.142;16.344;2022-08-05T16:15:45;36.80;48.80
5919;DHT22;2985;48.142;16.344;2022-08-05T16:20:54;36.50;49.40
5919;DHT22;2985;48.142;16.344;2022-08-05T16:26:07;36.40;49.70
5919;DHT22;2985;48.142;16.344;2022-08-05T16:31:17;36.20;49.90
5919;DHT22;2985;48.142;16.344;2022-08-05T16:36:26;35.40;50.80
5919;DHT22;2985;48.142;16.344;2022-08-05T16:41:36;35.40;50.90
5919;DHT22;2985;48.142;16.344;2022-08-05T16:46:45;35.40;51.10
5919;DHT22;2985;48.142;16.344;2022-08-05T16:51:55;35.00;51.70
5919;DHT22;2985;48.142;16.344;2022-08-05T16:57:04;34.90;52.20
5919;DHT22;2985;48.142;16.344;2022-08-05T17:02:13;34.70;52.50
5919;DHT22;2985;48.142;16.344;2022-08-05T17:07:22;34.70;52.60
5919;DHT22;2985;48.142;16.344;2022-08-05T17:12:31;34.40;53.50
5919;DHT22;2985;48.142;16.344;2022-08-05T17:17:41;34.20;53.80
5919;DHT22;2985;48.142;16.344;2022-08-05T17:22:52;34.20;54.10
5919;DHT22;2985;48.142;16.344;2022-08-05T17:28:01;34.20;53.50
5919;DHT22;2985;48.142;16.344;2022-08-05T17:33:11;34.00;53.60
5919;DHT22;2985;48.142;16.344;2022-08-05T17:38:20;33.90;53.70
5919;DHT22;2985;48.142;16.344;2022-08-05T17:43:29;33.80;54.20
5919;DHT22;2985;48.142;16.344;2022-08-05T17:48:38;33.70;54.20
5919;DHT22;2985;48.142;16.344;2022-08-05T17:53:48;33.60;54.40
5919;DHT22;2985;48.142;16.344;2022-08-05T17:58:57;33.50;54.50
5919;DHT22;2985;48.142;16.344;2022-08-05T18:04:07;33.40;54.60
5919;DHT22;2985;48.142;16.344;2022-08-05T18:09:16;33.40;54.80
5919;DHT22;2985;48.142;16.344;2022-08-05T18:14:25;33.30;55.20
5919;DHT22;2985;48.142;16.344;2022-08-05T18:19:34;33.10;55.60
5919;DHT22;2985;48.142;16.344;2022-08-05T18:24:44;33.00;56.40
5919;DHT22;2985;48.142;16.344;2022-08-05T18:29:53;32.80;56.80
5919;DHT22;2985;48.142;16.344;2022-08-05T18:35:02;32.70;58.40
5919;DHT22;2985;48.142;16.344;2022-08-05T18:40:12;32.50;58.90
5919;DHT22;2985;48.142;16.344;2022-08-05T18:45:22;32.40;58.90
5919;DHT22;2985;48.142;16.344;2022-08-05T18:50:32;32.30;59.10
5919;DHT22;2985;48.142;16.344;2022-08-05T18:56:00;32.30;59.70
5919;DHT22;2985;48.142;16.344;2022-08-05T19:01:09;32.10;60.60
5919;DHT22;2985;48.142;16.344;2022-08-05T19:06:19;32.00;60.50
5919;DHT22;2985;48.142;16.344;2022-08-05T19:11:28;31.90;61.50
5919;DHT22;2985;48.142;16.344;2022-08-05T19:16:38;31.70;61.00
5919;DHT22;2985;48.142;16.344;2022-08-05T19:21:52;31.60;60.90
5919;DHT22;2985;48.142;16.344;2022-08-05T19:27:02;31.50;61.70
5919;DHT22;2985;48.142;16.344;2022-08-05T19:32:12;31.30;61.70
5919;DHT22;2985;48.142;16.344;2022-08-05T19:37:22;31.20;62.00
5919;DHT22;2985;48.142;16.344;2022-08-05T19:42:32;31.00;62.20
5919;DHT22;2985;48.142;16.344;2022-08-05T19:47:41;30.90;62.80
5919;DHT22;2985;48.142;16.344;2022-08-05T19:52:50;30.80;62.40
5919;DHT22;2985;48.142;16.344;2022-08-05T19:57:59;30.80;62.60
5919;DHT22;2985;48.142;16.344;2022-08-05T20:03:09;30.80;63.20
5919;DHT22;2985;48.142;16.344;2022-08-05T20:08:19;30.60;63.60
5919;DHT22;2985;48.142;16.344;2022-08-05T20:18:38;30.40;63.80
5919;DHT22;2985;48.142;16.344;2022-08-05T20:23:48;30.30;64.50
5919;DHT22;2985;48.142;16.344;2022-08-05T20:28:57;30.20;64.70
5919;DHT22;2985;48.142;16.344;2022-08-05T20:34:07;30.10;64.80
5919;DHT22;2985;48.142;16.344;2022-08-05T20:39:16;29.90;65.20
5919;DHT22;2985;48.142;16.344;2022-08-05T20:44:25;29.70;66.00
5919;DHT22;2985;48.142;16.344;2022-08-05T20:49:34;29.70;65.80
5919;DHT22;2985;48.142;16.344;2022-08-05T20:54:43;29.80;66.20
5919;DHT22;2985;48.142;16.344;2022-08-05T20:59:52;29.70;66.20
5919;DHT22;2985;48.142;16.344;2022-08-05T21:05:02;29.70;66.80
5919;DHT22;2985;48.142;16.344;2022-08-05T21:10:12;29.40;67.70
5919;DHT22;2985;48.142;16.344;2022-08-05T21:15:21;29.30;68.10
5919;DHT22;2985;48.142;16.344;2022-08-05T21:20:31;29.20;68.20
5919;DHT22;2985;48.142;16.344;2022-08-05T21:25:40;29.20;68.10
5919;DHT22;2985;48.142;16.344;2022-08-05T21:30:52;29.20;68.40
5919;DHT22;2985;48.142;16.344;2022-08-05T21:36:02;29.10;68.50
5919;DHT22;2985;48.142;16.344;2022-08-05T21:41:11;29.00;68.90
5919;DHT22;2985;48.142;16.344;2022-08-05T21:46:20;29.00;69.00
5919;DHT22;2985;48.142;16.344;2022-08-05T21:51:29;29.00;68.70
5919;DHT22;2985;48.142;16.344;2022-08-05T21:56:39;28.90;69.30
5919;DHT22;2985;48.142;16.344;2022-08-05T22:01:48;29.00;68.70
5919;DHT22;2985;48.142;16.344;2022-08-05T22:06:57;28.90;68.50
5919;DHT22;2985;48.142;16.344;2022-08-05T22:12:06;28.80;68.50
5919;DHT22;2985;48.142;16.344;2022-08-05T22:17:17;28.80;68.30
5919;DHT22;2985;48.142;16.344;2022-08-05T22:22:26;28.90;68.10
5919;DHT22;2985;48.142;16.344;2022-08-05T22:27:35;28.90;68.20
5919;DHT22;2985;48.142;16.344;2022-08-05T22:32:54;28.80;68.80
5919;DHT22;2985;48.142;16.344;2022-08-05T22:38:04;28.70;69.10
5919;DHT22;2985;48.142;16.344;2022-08-05T22:43:14;28.60;69.70
5919;DHT22;2985;48.142;16.344;2022-08-05T22:48:23;28.50;70.30
5919;DHT22;2985;48.142;16.344;2022-08-05T22:53:32;28.50;71.40
5919;DHT22;2985;48.142;16.344;2022-08-05T22:58:41;28.50;71.80
5919;DHT22;2985;48.142;16.344;2022-08-05T23:03:50;28.40;73.50
5919;DHT22;2985;48.142;16.344;2022-08-05T23:08:59;28.40;73.60
5919;DHT22;2985;48.142;16.344;2022-08-05T23:14:08;28.40;73.20
5919;DHT22;2985;48.142;16.344;2022-08-05T23:19:17;28.40;74.10
5919;DHT22;2985;48.142;16.344;2022-08-05T23:24:27;28.30;74.90
5919;DHT22;2985;48.142;16.344;2022-08-05T23:29:36;28.40;78.30
5919;DHT22;2985;48.142;16.344;2022-08-05T23:34:45;28.30;77.20
5919;DHT22;2985;48.142;16.344;2022-08-05T23:39:54;28.20;78.40
5919;DHT22;2985;48.142;16.344;2022-08-05T23:45:04;28.10;79.50
5919;DHT22;2985;48.142;16.344;2022-08-05T23:50:13;28.10;79.90
5919;DHT22;2985;48.142;16.344;2022-08-05T23:55:22;28.10;80.20
